createdAt,value
2023-05-12T00:00:42.792Z,95150.72
2023-05-12T00:09:09.792Z,95106.45
2023-05-12T00:17:32.753Z,95063.33
2023-05-12T00:25:55.729Z,95017.19
2023-05-12T00:34:18.575Z,94964.17
2023-05-12T00:42:41.606Z,94915.30
2023-05-12T00:51:05.083Z,94871.66
2023-05-12T00:59:29.685Z,94829.41
2023-05-12T01:07:52.991Z,94786.77
2023-05-12T01:16:18.373Z,94748.52
2023-05-12T01:25:01.853Z,94709.06
2023-05-12T01:33:26.632Z,94665.71
2023-05-12T01:41:49.802Z,94621.13
2023-05-12T01:50:13.120Z,94562.91
2023-05-12T01:58:36.771Z,94513.05
2023-05-12T02:07:01.838Z,94460.92
2023-05-12T02:15:25.632Z,94423.38
2023-05-12T02:23:49.260Z,94394.68
2023-05-12T02:32:12.606Z,94353.34
2023-05-12T02:40:40.048Z,94310.97
2023-05-12T02:49:04.646Z,94275.91
2023-05-12T02:57:33.032Z,94246.67
2023-05-12T03:05:56.138Z,94229.59
2023-05-12T03:14:19.032Z,94225.17
2023-05-12T03:22:42.300Z,94229.03
2023-05-12T03:31:05.540Z,94257.94
2023-05-12T03:39:28.695Z,94451.80
2023-05-12T03:47:52.227Z,94961.05
2023-05-12T03:56:15.816Z,95447.48
2023-05-12T04:04:38.794Z,95795.36
2023-05-12T04:13:01.784Z,96007.27
2023-05-12T04:21:26.226Z,95985.30
2023-05-12T04:29:49.153Z,95927.55
2023-05-12T04:38:12.517Z,95890.41
2023-05-12T04:46:36.753Z,95964.07
2023-05-12T04:54:59.929Z,96057.73
2023-05-12T05:03:23.501Z,96155.85
2023-05-12T05:11:47.905Z,96256.23
2023-05-12T05:20:12.663Z,96386.34
2023-05-12T05:28:40.042Z,96476.42
2023-05-12T05:37:04.105Z,96543.55
2023-05-12T05:45:28.176Z,96672.54
2023-05-12T05:53:52.018Z,96850.27
2023-05-12T06:02:18.904Z,97036.23
2023-05-12T06:10:42.177Z,97250.00
2023-05-12T06:19:05.458Z,97381.88
2023-05-12T06:27:28.445Z,97507.85
2023-05-12T06:35:51.470Z,97634.99
2023-05-12T06:44:14.578Z,97786.52
2023-05-12T06:52:38.588Z,97839.73
2023-05-12T07:01:02.017Z,97961.84
2023-05-12T07:09:24.901Z,98087.32
2023-05-12T07:17:47.877Z,98226.16
2023-05-12T07:26:10.896Z,98296.52
2023-05-12T07:34:34.296Z,98380.39
2023-05-12T07:42:57.529Z,98399.64
2023-05-12T07:51:20.452Z,98320.80
2023-05-12T07:59:44.293Z,98442.98
2023-05-12T08:08:07.268Z,98560.80
2023-05-12T08:16:30.383Z,98641.63
2023-05-12T08:24:53.446Z,98691.60
2023-05-12T08:33:16.367Z,98702.20
2023-05-12T08:41:53.312Z,98695.26
2023-05-12T08:50:18.963Z,98777.09
2023-05-12T08:58:43.048Z,98912.36
2023-05-12T09:07:08.903Z,98953.57
2023-05-12T09:15:42.030Z,98902.05
2023-05-12T09:24:07.789Z,98917.49
2023-05-12T09:32:32.971Z,98954.82
2023-05-12T09:40:56.376Z,98990.27
2023-05-12T09:49:27.210Z,99085.35
2023-05-12T09:57:51.139Z,99045.87
2023-05-12T10:06:25.300Z,99083.52
2023-05-12T10:14:49.546Z,99116.04
2023-05-12T10:23:28.299Z,99181.70
2023-05-12T10:31:51.248Z,99212.80
2023-05-12T10:40:25.156Z,99212.70
2023-05-12T10:49:12.692Z,99276.02
2023-05-12T10:57:36.518Z,99220.71
2023-05-12T11:06:02.941Z,99313.83
2023-05-12T11:14:27.302Z,99306.47
2023-05-12T11:22:50.608Z,99361.55
2023-05-12T11:31:20.460Z,99378.80
2023-05-12T11:39:43.311Z,99438.69
2023-05-12T11:48:12.340Z,99406.29
2023-05-12T11:56:36.542Z,99371.25
2023-05-12T12:04:59.611Z,99349.27
2023-05-12T12:13:24.370Z,99367.23
2023-05-12T12:21:47.276Z,99381.94
2023-05-12T12:30:10.695Z,99375.87
2023-05-12T12:38:33.616Z,99407.02
2023-05-12T12:46:56.611Z,99407.54
2023-05-12T12:55:19.986Z,99402.98
2023-05-12T13:03:43.114Z,99430.48
2023-05-12T13:12:06.432Z,99437.28
2023-05-12T13:20:29.674Z,99479.67
2023-05-12T13:28:52.756Z,99496.80
2023-05-12T13:37:15.843Z,99442.48
2023-05-12T13:45:38.664Z,99384.61
2023-05-12T13:54:01.499Z,99162.41
2023-05-12T14:02:24.506Z,99039.48
2023-05-12T14:10:47.538Z,98815.94
2023-05-12T14:19:10.548Z,98766.77
2023-05-12T14:27:33.413Z,98805.18
2023-05-12T14:36:06.585Z,98708.90
2023-05-12T14:44:31.156Z,98787.81
2023-05-12T14:52:54.135Z,98892.09
2023-05-12T15:01:17.378Z,98961.27
2023-05-12T15:09:40.410Z,99023.25
2023-05-12T15:18:04.275Z,99063.97
2023-05-12T15:26:33.518Z,99077.29
2023-05-12T15:34:58.652Z,99120.36
2023-05-12T15:43:21.669Z,99096.48
2023-05-12T15:51:44.711Z,98888.36
2023-05-12T16:00:08.152Z,98683.66
2023-05-12T16:08:36.923Z,98603.23
2023-05-12T16:16:59.817Z,98609.24
2023-05-12T16:25:23.192Z,98611.79
2023-05-12T16:33:46.267Z,98602.00
2023-05-12T16:42:09.050Z,98566.92
2023-05-12T16:50:32.407Z,98512.25
2023-05-12T16:58:55.696Z,98429.33
2023-05-12T17:07:18.668Z,98343.69
2023-05-12T17:15:41.536Z,98261.56
2023-05-12T17:24:05.229Z,98165.05
2023-05-12T17:32:28.407Z,98067.59
2023-05-12T17:40:51.416Z,97975.58
2023-05-12T17:49:14.233Z,97863.89
2023-05-12T17:57:37.655Z,97735.27
2023-05-12T18:06:00.729Z,97604.08
2023-05-12T18:14:23.616Z,97455.27
2023-05-12T18:22:46.436Z,97294.34
2023-05-12T18:31:16.069Z,97111.67
2023-05-12T18:39:39.462Z,96920.12
2023-05-12T18:48:02.368Z,96724.22
2023-05-12T18:56:25.793Z,96548.90
2023-05-12T19:04:48.760Z,96378.20
2023-05-12T19:13:12.036Z,96216.61
2023-05-12T19:21:34.991Z,96064.04
2023-05-12T19:29:58.074Z,95907.20
2023-05-12T19:38:20.970Z,95758.16
2023-05-12T19:46:44.297Z,95622.09
2023-05-12T19:55:08.593Z,95507.30
2023-05-12T20:03:31.538Z,95399.04
2023-05-12T20:11:54.499Z,95300.33
2023-05-12T20:20:17.522Z,95200.41
2023-05-12T20:28:41.340Z,95111.66
2023-05-12T20:37:04.416Z,95048.39
2023-05-12T20:45:28.162Z,94983.54
2023-05-12T20:53:51.638Z,94919.06
2023-05-12T21:02:16.089Z,94845.45
2023-05-12T21:10:41.128Z,94757.77
2023-05-12T21:19:04.187Z,94684.44
2023-05-12T21:27:27.163Z,94637.27
2023-05-12T21:35:50.329Z,94590.12
2023-05-12T21:44:13.138Z,94524.60
2023-05-12T21:52:35.955Z,94450.33
2023-05-12T22:00:59.981Z,94400.60
2023-05-12T22:09:23.031Z,94370.65
2023-05-12T22:17:46.677Z,94336.46
2023-05-12T22:26:10.337Z,94313.88
2023-05-12T22:34:33.216Z,94301.43
2023-05-12T22:42:56.037Z,94293.16
2023-05-12T22:51:18.925Z,94293.71
2023-05-12T22:59:41.755Z,94299.27
2023-05-12T23:08:04.650Z,94304.64
2023-05-12T23:16:27.586Z,94306.17
2023-05-12T23:24:52.581Z,94309.86
2023-05-12T23:33:15.514Z,94299.86
2023-05-12T23:41:38.537Z,94273.74
2023-05-12T23:50:01.731Z,94290.31
2023-05-12T23:58:24.598Z,94298.62
